Burnet, TX

7:11 PM CST on March 06, 2015 (GMT -0600)
Burnet Municipal-Craddock | Change Station
CLOSE
Current Station
Airport
Location: Burnet,
Elevation: 1286 ft
Nearby Weather Stations

Elev 1286 ft 30.74 °N, 98.24 °W | Updated 18 minutes ago

Clear
Clear
48 °F
Feels Like 48 °F
N
4
Wind Variable Wind from ESE

Today
High -- | Low -- °F
--% Chance of Precip.
Yesterday
High -- | Low -- °F
Precip. -- in
6:53 AM 6:34 PM
Full, 99% visible
Pressure 30.47 in
Visibility 10.0 miles
Clouds Clear
Dew Point 27 °F
Humidity 44%
Rainfall 0.00 in
Snow Depth Not available.
UV 0 out of 12
Pollen 7.00 out of 12
Air Quality Not available.
Flu Activity Not available.
METAR KBMQ 070053Z AUTO 11003KT 10SM CLR 09/M03 A3045 RMK AO2 SLP316 T00891028

More Conditions Fewer Conditions

Pressure 30.47 in
Visibility 10.0 miles
Clouds Clear
Dew Point 27 °F
Humidity 44%
Rainfall 0.00 in
Snow Depth Not available.
UV 0 out of 12
Pollen 7.00 out of 12
Air Quality Not available.
Flu Activity Not available.
METAR KBMQ 070053Z AUTO 11003KT 10SM CLR 09/M03 A3045 RMK AO2 SLP316 T00891028

More Conditions Fewer Conditions

10-Day Weather Forecast

Almanac

Astronomy

Mar. 06, 2015 Rise Set
Actual Time
Civil Twilight
Nautical Twilight
Astronomical Twilight
Moon
Length of Visible Light
Length of Day
Tomorrow will be .
, % of the Moon is Illuminated

Today's Extremes

State Highs State Lows

Community

WunderPhotos

Upload Photos

1,803,480 photos uploaded!

WunderBlogs® & News

Nearby

Air Quality

  Air Quality AQ Index Pollutant
Not available.

Snow Depth

Station Depth Elevation

Earthquake Activity

City Distance Mag. Time & Date
Minimum magnitude displayed is 2.5.

Coastal Water Temperatures

Place Temperature

Nearby Weather Stations